Time;durP1;ratioP1;P1;durP2;ratioP2;P2;SDS_P1;SDS_P2;PMS_P1;PMS_P2;Temp;Humidity;BMP_temperature;BMP_pressure;BME280_temperature;BME280_humidity;BME280_pressure;Samples;Min_cycle;Max_cycle;Signal;HPM_P1;HPM_P2
2023/10/16 00:01:27;;;;;;;0.50;0.50;;;;;;;13.44;45.91;101084.56;5010916;28;20825;-78
2023/10/16 00:03:55;;;;;;;0.30;0.30;;;;;;;13.29;46.28;101079.19;5010374;28;20470;-78
2023/10/16 00:06:21;;;;;;;0.38;0.30;;;;;;;13.28;46.22;101085.50;5011148;28;20376;-76
2023/10/16 00:08:47;;;;;;;0.40;0.37;;;;;;;13.14;46.55;101091.59;5011647;28;20418;-78
2023/10/16 00:11:16;;;;;;;0.45;0.40;;;;;;;13.07;46.63;101112.78;5011222;28;20471;-77
2023/10/16 00:13:44;;;;;;;0.30;0.30;;;;;;;13.26;46.35;101103.50;5010977;28;20555;-78
2023/10/16 00:16:15;;;;;;;0.30;0.30;;;;;;;13.16;46.07;101103.75;4992942;28;20518;-78
2023/10/16 00:18:40;;;;;;;0.30;0.30;;;;;;;13.30;45.64;101107.44;4994390;28;20765;-78
2023/10/16 00:21:06;;;;;;;0.20;0.20;;;;;;;13.27;45.76;101112.28;4993319;28;20385;-78
2023/10/16 00:23:38;;;;;;;0.30;0.30;;;;;;;13.25;45.75;101136.44;5010826;28;20384;-78
2023/10/16 00:26:06;;;;;;;0.30;0.30;;;;;;;13.33;45.68;101104.47;5009999;28;20717;-78
2023/10/16 00:28:32;;;;;;;0.30;0.30;;;;;;;13.22;45.41;101106.66;5010139;28;20404;-78
2023/10/16 00:30:57;;;;;;;0.10;0.10;;;;;;;13.22;45.63;101102.19;5008605;28;20380;-77
2023/10/16 00:33:24;;;;;;;0.50;0.50;;;;;;;13.03;45.87;101111.47;5008882;28;20395;-78
2023/10/16 00:35:50;;;;;;;0.20;0.20;;;;;;;13.18;45.45;101123.00;5009748;28;20403;-78
2023/10/16 00:38:22;;;;;;;0.70;0.50;;;;;;;13.16;45.76;101118.84;4992240;28;20431;-77
2023/10/16 00:41:05;;;;;;;0.30;0.30;;;;;;;13.19;45.30;101145.13;5009891;28;20392;-77
2023/10/16 00:43:34;;;;;;;0.20;0.20;;;;;;;13.26;45.39;101169.22;5009999;28;20441;-77
2023/10/16 00:46:06;;;;;;;0.30;0.30;;;;;;;13.12;45.53;101176.13;5009055;28;20410;-77
2023/10/16 00:48:36;;;;;;;0.25;0.25;;;;;;;13.10;45.30;101184.28;4991478;28;20416;-77
2023/10/16 00:51:09;;;;;;;0.28;0.28;;;;;;;13.21;45.34;101201.69;4991653;28;20463;-76
2023/10/16 00:53:39;;;;;;;0.50;0.50;;;;;;;13.18;45.03;101202.03;5009966;28;20380;-78
2023/10/16 00:56:08;;;;;;;0.22;0.22;;;;;;;13.24;44.98;101205.84;4991730;28;20400;-77
2023/10/16 00:58:37;;;;;;;0.23;0.23;;;;;;;13.40;44.67;101208.44;5009574;28;20830;-78
2023/10/16 01:01:09;;;;;;;0.28;0.28;;;;;;;13.56;44.25;101207.50;5007980;28;20404;-79
2023/10/16 01:03:40;;;;;;;0.35;0.28;;;;;;;13.27;44.84;101205.47;5009185;28;20463;-77
2023/10/16 01:06:16;;;;;;;0.30;0.30;;;;;;;13.50;44.53;101210.84;5009204;28;20449;-78
2023/10/16 01:08:51;;;;;;;0.20;0.20;;;;;;;13.65;44.29;101205.59;5010935;28;20412;-77
2023/10/16 01:11:22;;;;;;;0.13;0.13;;;;;;;13.67;44.17;101207.09;5013579;28;20410;-77
2023/10/16 01:13:48;;;;;;;0.90;0.40;;;;;;;13.24;44.97;101214.66;5013034;28;20768;-77
2023/10/16 01:16:18;;;;;;;0.38;0.30;;;;;;;13.41;44.91;101194.09;4995493;28;20412;-77
2023/10/16 01:18:45;;;;;;;0.25;0.20;;;;;;;13.52;44.84;101179.53;4995833;28;20458;-77
2023/10/16 01:21:13;;;;;;;0.30;0.30;;;;;;;13.04;45.76;101176.19;5013570;28;20422;-78
2023/10/16 01:23:40;;;;;;;0.30;0.30;;;;;;;12.97;45.76;101190.16;5013324;28;20394;-77
2023/10/16 01:26:06;;;;;;;0.30;0.30;;;;;;;12.77;46.28;101187.09;5013411;28;20495;-77
2023/10/16 01:28:32;;;;;;;0.30;0.30;;;;;;;12.86;45.83;101201.22;4995588;28;20485;-78
2023/10/16 01:31:00;;;;;;;0.30;0.30;;;;;;;12.91;45.85;101208.66;5012746;28;20499;-76
2023/10/16 01:33:26;;;;;;;0.47;0.40;;;;;;;12.94;45.63;101221.63;4995314;28;20402;-75
2023/10/16 01:35:53;;;;;;;0.40;0.35;;;;;;;12.96;45.59;101227.59;4995521;28;20471;-76
2023/10/16 01:38:19;;;;;;;6.20;0.60;;;;;;;13.06;45.33;101240.72;5013063;28;20381;-76
2023/10/16 01:41:16;;;;;;;0.30;0.30;;;;;;;13.08;45.21;101244.03;5013279;28;20399;-76
2023/10/16 01:43:43;;;;;;;0.40;0.40;;;;;;;13.15;45.08;101251.13;5011908;28;20392;-76
2023/10/16 01:46:11;;;;;;;0.33;0.33;;;;;;;13.08;45.15;101258.16;5013358;28;20383;-76
2023/10/16 01:48:49;;;;;;;0.38;0.38;;;;;;;13.15;45.00;101251.13;5012777;28;20946;-80
2023/10/16 01:51:20;;;;;;;1.10;0.40;;;;;;;13.11;45.16;101249.00;5010876;28;20388;-80
2023/10/16 01:53:47;;;;;;;0.30;0.30;;;;;;;13.19;45.01;101248.94;4994852;28;20423;-79
2023/10/16 01:56:13;;;;;;;0.30;0.30;;;;;;;13.11;45.21;101257.00;4994775;28;20388;-80
2023/10/16 01:59:29;;;;;;;0.30;0.30;;;;;;;13.06;45.33;101254.03;5014583;28;20567;-80
2023/10/16 02:01:55;;;;;;;0.40;0.30;;;;;;;13.00;45.40;101258.19;5016154;28;20384;-80
2023/10/16 02:04:22;;;;;;;0.30;0.30;;;;;;;12.97;45.58;101242.56;5009453;28;20404;-77
2023/10/16 02:06:50;;;;;;;0.20;0.20;;;;;;;13.15;45.42;101259.13;5012855;28;20420;-80
2023/10/16 02:09:23;;;;;;;0.40;0.30;;;;;;;13.03;45.41;101246.38;5010562;28;20416;-78
2023/10/16 02:11:53;;;;;;;0.43;0.40;;;;;;;13.03;45.31;101265.81;5010379;28;20386;-78
2023/10/16 02:14:21;;;;;;;0.40;0.40;;;;;;;12.99;45.01;101268.00;5009366;28;20388;-79
2023/10/16 02:16:55;;;;;;;2.07;0.63;;;;;;;13.16;45.10;101273.25;4993503;28;20384;-81
2023/10/16 02:19:21;;;;;;;0.40;0.33;;;;;;;13.13;45.06;101279.75;5009749;28;20408;-79
2023/10/16 02:21:47;;;;;;;0.20;0.20;;;;;;;12.98;44.94;101287.66;5011259;28;21291;-78
2023/10/16 02:24:19;;;;;;;0.30;0.30;;;;;;;12.96;45.28;101292.31;5010792;28;20404;-78
2023/10/16 02:27:00;;;;;;;0.40;0.40;;;;;;;12.91;45.12;101286.66;5010659;28;20392;-79
2023/10/16 02:29:28;;;;;;;0.40;0.40;;;;;;;12.90;44.79;101302.81;5012147;28;20404;-77
2023/10/16 02:31:58;;;;;;;0.30;0.30;;;;;;;12.83;44.95;101310.63;5010284;28;20446;-76
2023/10/16 02:34:26;;;;;;;1.10;1.00;;;;;;;12.83;44.78;101310.63;5010637;28;20415;-79
2023/10/16 02:36:54;;;;;;;0.60;0.50;;;;;;;12.82;44.43;101317.78;5011421;28;20487;-77
2023/10/16 02:39:35;;;;;;;0.30;0.30;;;;;;;12.77;44.32;101357.38;5010871;28;20953;-79
2023/10/16 02:42:08;;;;;;;0.30;0.30;;;;;;;12.56;44.94;101363.19;4995724;28;20473;-76
2023/10/16 02:44:39;;;;;;;0.50;0.50;;;;;;;12.53;44.53;101360.91;5010794;28;20759;-76
2023/10/16 02:47:08;;;;;;;0.20;0.20;;;;;;;12.56;44.76;101367.69;5010138;28;20419;-78
2023/10/16 02:49:34;;;;;;;0.20;0.20;;;;;;;12.55;44.43;101372.19;5011392;28;20408;-81
2023/10/16 02:52:04;;;;;;;0.30;0.30;;;;;;;12.57;44.23;101356.06;5009694;28;20392;-80
2023/10/16 02:54:30;;;;;;;0.30;0.30;;;;;;;12.63;44.38;101366.84;4993379;28;20752;-77
2023/10/16 02:56:59;;;;;;;0.30;0.30;;;;;;;12.66;44.42;101372.81;5010775;28;20896;-77
2023/10/16 02:59:31;;;;;;;0.40;0.40;;;;;;;12.44;44.60;101377.81;5012178;28;20748;-77
2023/10/16 03:02:00;;;;;;;1.52;0.47;;;;;;;12.55;44.57;101385.50;5010230;28;20566;-77
2023/10/16 03:04:32;;;;;;;0.30;0.30;;;;;;;12.48;44.49;101380.97;5010792;28;20416;-78
2023/10/16 03:07:01;;;;;;;0.20;0.20;;;;;;;12.46;44.80;101380.31;5011331;28;20387;-77
2023/10/16 03:09:55;;;;;;;0.47;0.40;;;;;;;12.36;44.82;101383.97;5011606;28;20853;-78
2023/10/16 03:12:36;;;;;;;0.20;0.20;;;;;;;12.56;44.49;101389.78;5012380;28;20404;-78
2023/10/16 03:15:14;;;;;;;0.30;0.30;;;;;;;12.61;44.52;101389.31;5011217;28;21087;-79
2023/10/16 03:17:43;;;;;;;0.30;0.30;;;;;;;12.36;44.60;101399.94;5016764;28;20403;-80
2023/10/16 03:20:20;;;;;;;0.40;0.30;;;;;;;12.20;44.80;101406.03;5010293;28;21067;-78
2023/10/16 03:22:52;;;;;;;0.20;0.20;;;;;;;12.28;44.83;101415.03;5025453;28;20466;-79
2023/10/16 03:25:25;;;;;;;0.17;0.17;;;;;;;12.20;44.96;101424.66;5013998;28;20422;-77
2023/10/16 03:27:52;;;;;;;0.30;0.30;;;;;;;12.28;44.54;101429.19;5013632;28;20419;-78
2023/10/16 03:30:27;;;;;;;0.20;0.20;;;;;;;12.33;44.42;101452.59;5026079;28;20470;-78
2023/10/16 03:32:55;;;;;;;0.22;0.22;;;;;;;12.38;44.26;101453.75;5009788;28;20383;-79
2023/10/16 03:35:26;;;;;;;0.20;0.20;;;;;;;12.32;44.14;101451.78;4993054;28;20384;-77
2023/10/16 03:37:55;;;;;;;0.20;0.20;;;;;;;12.27;44.00;101458.56;5010793;28;20395;-78
2023/10/16 03:40:24;;;;;;;0.20;0.20;;;;;;;12.41;43.61;101453.44;5010645;28;20463;-78
2023/10/16 03:42:53;;;;;;;0.10;0.10;;;;;;;12.42;43.41;101462.25;5010743;28;20782;-79
2023/10/16 03:45:21;;;;;;;0.20;0.20;;;;;;;12.50;43.59;101470.25;5008560;28;20937;-80
2023/10/16 03:47:54;;;;;;;0.22;0.22;;;;;;;12.52;43.18;101470.09;5009801;28;20909;-77
2023/10/16 03:50:34;;;;;;;0.10;0.10;;;;;;;12.46;43.43;101484.03;5008117;28;20463;-78
2023/10/16 03:53:07;;;;;;;0.22;0.22;;;;;;;12.40;43.46;101480.19;5010736;28;20406;-80
2023/10/16 03:55:49;;;;;;;0.10;0.10;;;;;;;12.41;43.41;101481.88;5009901;28;20392;-77
2023/10/16 03:58:18;;;;;;;0.80;0.60;;;;;;;12.46;43.16;101468.91;4991664;28;20490;-80
2023/10/16 04:00:53;;;;;;;0.20;0.20;;;;;;;12.59;43.11;101463.94;5022824;28;20400;-78
2023/10/16 04:03:21;;;;;;;0.10;0.10;;;;;;;12.71;42.71;101468.94;4991351;28;20479;-75
2023/10/16 04:05:53;;;;;;;0.20;0.20;;;;;;;12.74;42.69;101471.25;5008380;28;20419;-78
2023/10/16 04:08:22;;;;;;;0.20;0.20;;;;;;;12.83;42.64;101475.59;4990181;28;20452;-79
2023/10/16 04:10:48;;;;;;;0.20;0.20;;;;;;;12.81;42.47;101480.25;5010189;28;20759;-79
2023/10/16 04:13:14;;;;;;;0.20;0.20;;;;;;;12.84;42.29;101487.06;5008882;28;20779;-78
2023/10/16 04:26:47;;;;;;;0.17;0.17;;;;;;;12.53;42.81;101504.50;4994695;28;20758;-78
2023/10/16 04:37:24;;;;;;;0.10;0.10;;;;;;;12.74;42.48;101522.63;5008984;28;20919;-78
2023/10/16 04:42:50;;;;;;;0.30;0.30;;;;;;;12.74;42.44;101537.78;5000275;28;20398;-79
2023/10/16 04:50:37;;;;;;;0.70;0.50;;;;;;;12.24;43.29;101556.25;4999905;28;20413;-78
2023/10/16 04:53:08;;;;;;;0.10;0.10;;;;;;;12.16;43.33;101558.88;4973089;28;20398;-78
2023/10/16 05:04:14;;;;;;;0.20;0.20;;;;;;;12.40;43.18;101571.41;4989401;28;20978;-80
2023/10/16 05:17:21;;;;;;;0.10;0.10;;;;;;;12.27;42.97;101592.31;4970744;28;20414;-78
2023/10/16 05:20:52;;;;;;;0.20;0.20;;;;;;;12.31;42.94;101587.50;4971299;28;20811;-77
2023/10/16 06:15:21;;;;;;;0.22;0.22;;;;;;;12.81;41.41;101623.94;5012677;28;20439;-77
2023/10/16 06:17:51;;;;;;;0.20;0.20;;;;;;;12.73;40.94;101637.19;4994609;28;20410;-78
2023/10/16 06:20:22;;;;;;;0.10;0.10;;;;;;;12.96;41.09;101632.09;4988173;28;20409;-79
2023/10/16 06:22:51;;;;;;;0.10;0.10;;;;;;;12.98;40.74;101640.75;4977247;28;20402;-81
2023/10/16 06:25:19;;;;;;;1.60;1.50;;;;;;;12.96;40.63;101662.22;4993588;28;20398;-77
2023/10/16 06:27:46;;;;;;;3.90;0.38;;;;;;;13.18;40.62;101660.78;4989974;28;20427;-79
2023/10/16 06:30:18;;;;;;;0.10;0.10;;;;;;;13.42;40.45;101661.84;4986432;28;20394;-77
2023/10/16 06:32:49;;;;;;;0.10;0.10;;;;;;;13.36;40.62;101681.13;4997631;28;20906;-78
2023/10/16 06:35:21;;;;;;;0.10;0.10;;;;;;;13.29;40.45;101698.72;5010890;28;20396;-77
2023/10/16 06:37:53;;;;;;;0.10;0.10;;;;;;;13.24;40.24;101690.41;5013266;28;20476;-78
2023/10/16 06:40:29;;;;;;;0.10;0.10;;;;;;;13.15;40.50;101677.06;5018487;28;20882;-79
2023/10/16 06:43:10;;;;;;;0.30;0.30;;;;;;;12.92;41.07;101674.19;5010962;28;20466;-79
2023/10/16 06:45:49;;;;;;;0.40;0.40;;;;;;;13.35;40.38;101663.50;5010083;28;20423;-79
2023/10/16 06:48:15;;;;;;;0.30;0.30;;;;;;;13.06;40.63;101671.91;5008912;28;20448;-78
2023/10/16 06:50:53;;;;;;;0.20;0.20;;;;;;;13.08;40.55;101669.91;4991376;28;20415;-76
2023/10/16 06:53:19;;;;;;;0.20;0.20;;;;;;;12.90;40.77;101684.16;5010031;28;20392;-77
2023/10/16 06:55:51;;;;;;;0.17;0.17;;;;;;;12.85;41.11;101675.81;5009614;28;20396;-79
2023/10/16 06:58:23;;;;;;;0.20;0.20;;;;;;;12.75;41.00;101683.94;5008792;28;20462;-77
2023/10/16 07:01:04;;;;;;;0.28;0.28;;;;;;;12.75;40.99;101702.56;4996635;28;20415;-80
2023/10/16 07:03:33;;;;;;;0.30;0.30;;;;;;;13.11;40.55;101699.69;5007172;28;20412;-78
2023/10/16 07:05:59;;;;;;;0.10;0.10;;;;;;;13.06;40.51;101696.69;4992420;28;20385;-79
2023/10/16 07:08:25;;;;;;;0.20;0.20;;;;;;;13.17;40.46;101684.91;4992992;28;20505;-80
2023/10/16 07:11:03;;;;;;;0.40;0.30;;;;;;;13.47;40.02;101682.63;5003060;28;20742;-78
2023/10/16 07:13:43;;;;;;;;;;;;;;;;;;;;;
2023/10/16 07:16:10;;;;;;;0.22;0.22;;;;;;;13.23;39.79;101708.19;5000271;28;20409;-78
2023/10/16 07:18:42;;;;;;;0.30;0.30;;;;;;;13.25;39.13;101695.53;4990886;28;20409;-78
2023/10/16 07:21:17;;;;;;;0.13;0.13;;;;;;;13.30;38.79;101709.22;5000012;28;20845;-79
2023/10/16 07:24:02;;;;;;;0.50;0.20;;;;;;;13.29;39.20;101707.56;5009267;28;20487;-78
2023/10/16 07:26:29;;;;;;;0.50;0.50;;;;;;;13.49;39.14;101696.63;4992588;28;20389;-77
2023/10/16 07:28:54;;;;;;;0.28;0.28;;;;;;;13.72;39.06;101704.78;4991574;28;20944;-77
2023/10/16 07:31:21;;;;;;;0.17;0.17;;;;;;;13.79;38.61;101708.44;4992050;28;20386;-76
2023/10/16 07:33:59;;;;;;;2.88;0.25;;;;;;;13.63;39.09;101711.97;4991491;28;20408;-77
2023/10/16 07:36:32;;;;;;;0.10;0.10;;;;;;;13.74;38.64;101719.63;4991521;28;20382;-78
2023/10/16 07:38:59;;;;;;;0.20;0.20;;;;;;;13.97;38.47;101718.94;4974722;28;20397;-77
2023/10/16 07:41:25;;;;;;;0.20;0.20;;;;;;;13.74;38.64;101708.97;4990055;28;20953;-78
2023/10/16 07:43:56;;;;;;;0.70;0.70;;;;;;;13.69;38.76;101705.97;4991783;28;20501;-76
2023/10/16 07:46:29;;;;;;;0.17;0.17;;;;;;;13.90;38.30;101705.47;4991492;28;20390;-78
2023/10/16 07:48:56;;;;;;;0.25;0.25;;;;;;;14.11;38.11;101714.78;4990778;28;20414;-76
2023/10/16 07:51:28;;;;;;;0.20;0.20;;;;;;;13.97;38.07;101724.28;4990377;28;20381;-77
2023/10/16 07:54:00;;;;;;;0.40;0.40;;;;;;;13.89;38.39;101746.44;4990337;28;20396;-76
2023/10/16 07:56:32;;;;;;;0.20;0.20;;;;;;;13.89;38.06;101745.63;4990795;28;20772;-77
2023/10/16 07:59:18;;;;;;;0.30;0.20;;;;;;;14.41;37.85;101733.75;4989927;28;20406;-78
2023/10/16 08:01:49;;;;;;;0.20;0.20;;;;;;;14.51;37.40;101737.03;4989884;28;20444;-77
2023/10/16 08:07:17;;;;;;;0.20;0.20;;;;;;;14.18;37.57;101729.09;4989206;28;20468;-76
2023/10/16 08:14:54;;;;;;;0.20;0.20;;;;;;;14.51;37.07;101739.69;4986647;28;20381;-78
2023/10/16 08:17:23;;;;;;;0.20;0.20;;;;;;;14.77;36.50;101736.81;5009448;28;20440;-78
2023/10/16 08:19:50;;;;;;;0.30;0.30;;;;;;;14.77;36.49;101731.47;5008764;28;20434;-79
2023/10/16 08:22:17;;;;;;;0.30;0.30;;;;;;;14.77;36.73;101744.00;5011082;28;20396;-77
2023/10/16 08:25:04;;;;;;;0.40;0.40;;;;;;;14.74;35.68;101750.50;5009684;28;20462;-79
2023/10/16 08:27:52;;;;;;;0.40;0.40;;;;;;;14.88;35.68;101751.63;5009696;28;20392;-80
2023/10/16 08:30:48;;;;;;;0.30;0.30;;;;;;;14.88;35.88;101752.44;5009255;28;20436;-79
2023/10/16 08:33:16;;;;;;;0.10;0.10;;;;;;;14.95;35.89;101754.44;5010671;28;20456;-80
2023/10/16 08:35:47;;;;;;;0.20;0.20;;;;;;;14.78;35.23;101762.50;4993528;28;20391;-79
2023/10/16 08:38:25;;;;;;;0.13;0.13;;;;;;;14.83;35.12;101762.00;4968878;28;20451;-81
2023/10/16 08:41:14;;;;;;;0.93;0.60;;;;;;;14.98;35.45;101756.75;4924409;28;20764;-79
2023/10/16 08:44:03;;;;;;;0.25;0.25;;;;;;;14.88;35.30;101749.78;4970443;28;20942;-78
2023/10/16 08:49:25;;;;;;;0.10;0.10;;;;;;;14.91;34.96;101746.78;4953803;28;20470;-80
2023/10/16 08:52:20;;;;;;;0.25;0.25;;;;;;;15.14;35.36;101756.66;4969760;28;20445;-79
2023/10/16 08:57:22;;;;;;;0.10;0.10;;;;;;;15.05;35.07;101755.06;4953361;28;20518;-80
2023/10/16 09:00:10;;;;;;;0.30;0.20;;;;;;;15.17;35.09;101759.00;4953017;28;20399;-79
2023/10/16 09:02:39;;;;;;;0.10;0.10;;;;;;;15.05;34.24;101757.72;4954936;28;20894;-78
2023/10/16 09:05:11;;;;;;;0.33;0.33;;;;;;;14.94;34.18;101766.94;4969097;28;20403;-80
2023/10/16 09:07:39;;;;;;;0.08;0.08;;;;;;;15.12;33.88;101755.19;4969199;28;20419;-79
2023/10/16 09:10:09;;;;;;;0.10;0.10;;;;;;;15.30;33.21;101747.75;5005727;28;20450;-78
2023/10/16 09:12:52;;;;;;;0.30;0.30;;;;;;;15.19;32.86;101767.66;4993866;28;20388;-79
2023/10/16 09:15:24;;;;;;;0.40;0.40;;;;;;;15.36;32.60;101783.59;4991985;28;20415;-78
2023/10/16 09:17:51;;;;;;;0.17;0.17;;;;;;;15.46;32.50;101781.56;4993639;28;20487;-79
2023/10/16 09:20:17;;;;;;;0.17;0.17;;;;;;;15.27;31.58;101781.00;4992507;28;20400;-78
2023/10/16 09:22:45;;;;;;;0.20;0.20;;;;;;;15.47;31.76;101767.19;4992387;28;20399;-79
2023/10/16 09:25:15;;;;;;;0.20;0.20;;;;;;;15.38;32.43;101763.75;4976373;28;20392;-79
2023/10/16 09:27:57;;;;;;;0.20;0.20;;;;;;;15.29;32.31;101756.78;4993116;28;20454;-79
2023/10/16 09:30:33;;;;;;;0.22;0.20;;;;;;;15.21;32.37;101759.47;4996739;28;20422;-80
2023/10/16 09:33:10;;;;;;;0.20;0.20;;;;;;;15.22;31.67;101763.84;5014336;28;20422;-79
2023/10/16 09:35:43;;;;;;;0.40;0.40;;;;;;;15.08;32.18;101781.41;5014584;28;20388;-81
2023/10/16 09:38:17;;;;;;;0.30;0.30;;;;;;;15.47;32.07;101780.56;5013554;28;20899;-80
2023/10/16 09:43:56;;;;;;;0.20;0.20;;;;;;;15.26;32.59;101763.28;5014058;28;20391;-80
2023/10/16 09:46:48;;;;;;;0.13;0.13;;;;;;;15.16;32.83;101746.69;5012181;28;20861;-80
2023/10/16 09:49:25;;;;;;;0.20;0.20;;;;;;;14.81;33.40;101745.31;4999098;28;20412;-79
2023/10/16 09:51:59;;;;;;;0.60;0.30;;;;;;;14.94;32.76;101758.09;5012453;28;20468;-80
2023/10/16 09:54:26;;;;;;;0.13;0.13;;;;;;;15.25;32.97;101764.31;5013410;28;20388;-79
2023/10/16 09:56:59;;;;;;;0.10;0.10;;;;;;;15.04;33.06;101761.41;5013234;28;20412;-80
2023/10/16 09:59:33;;;;;;;5.40;0.80;;;;;;;15.29;32.89;101749.59;5013078;28;20392;-79
2023/10/16 10:02:25;;;;;;;0.20;0.20;;;;;;;15.59;32.33;101746.22;4996638;28;20855;-79
2023/10/16 10:05:22;;;;;;;0.15;0.15;;;;;;;15.48;32.34;101726.94;4998420;28;20473;-81
2023/10/16 10:07:58;;;;;;;0.30;0.30;;;;;;;15.68;32.41;101735.31;5014078;28;20958;-77
2023/10/16 10:13:23;;;;;;;0.10;0.10;;;;;;;15.79;32.14;101744.78;5013283;28;20506;-77
2023/10/16 10:15:53;;;;;;;0.20;0.13;;;;;;;16.10;32.32;101767.94;4995378;28;20442;-78
2023/10/16 10:21:44;;;;;;;0.10;0.10;;;;;;;15.67;32.14;101749.69;4958486;28;20401;-78
2023/10/16 10:24:15;;;;;;;0.20;0.20;;;;;;;15.48;32.76;101740.31;5012856;28;20388;-78
2023/10/16 10:27:11;;;;;;;2.40;1.10;;;;;;;15.94;32.94;101746.69;5012866;28;20393;-80
2023/10/16 10:29:48;;;;;;;0.10;0.10;;;;;;;15.84;32.39;101750.41;4988546;28;20508;-80
2023/10/16 10:32:20;;;;;;;0.20;0.20;;;;;;;15.59;32.68;101764.94;4995197;28;20462;-79
2023/10/16 10:34:47;;;;;;;0.20;0.20;;;;;;;15.99;32.55;101757.66;5013333;28;20442;-78
2023/10/16 10:37:48;;;;;;;0.15;0.15;;;;;;;16.31;32.17;101759.19;5013301;28;20407;-79
2023/10/16 10:40:22;;;;;;;0.10;0.10;;;;;;;16.34;31.27;101756.16;4992459;28;20400;-78
2023/10/16 10:42:53;;;;;;;0.17;0.17;;;;;;;15.88;31.62;101744.72;4979570;28;20479;-84
2023/10/16 10:45:33;;;;;;;1.10;0.40;;;;;;;15.58;32.30;101745.41;5012679;28;20408;-79
2023/10/16 10:48:09;;;;;;;0.10;0.10;;;;;;;15.62;32.30;101737.88;4980141;28;20416;-80
2023/10/16 10:50:40;;;;;;;0.50;0.30;;;;;;;15.81;31.47;101748.13;5001901;28;20402;-80
2023/10/16 10:53:14;;;;;;;0.10;0.10;;;;;;;15.90;31.45;101756.06;5003383;28;20886;-80
2023/10/16 10:55:58;;;;;;;0.20;0.20;;;;;;;16.09;31.08;101742.19;5010554;28;20403;-78
2023/10/16 10:58:32;;;;;;;0.10;0.10;;;;;;;16.13;30.55;101734.63;5012184;28;20917;-78
2023/10/16 11:01:16;;;;;;;0.40;0.40;;;;;;;15.95;31.53;101725.09;4996315;28;20408;-78
2023/10/16 11:03:47;;;;;;;0.10;0.10;;;;;;;15.85;31.50;101706.63;4968685;28;20400;-78
2023/10/16 11:06:41;;;;;;;0.10;0.10;;;;;;;15.73;32.00;101712.56;4994985;28;20399;-78
2023/10/16 11:09:13;;;;;;;0.60;0.22;;;;;;;15.64;32.02;101734.00;5011042;28;20537;-77
2023/10/16 11:11:42;;;;;;;0.20;0.20;;;;;;;15.79;32.21;101723.41;5012146;28;20388;-79
2023/10/16 11:14:12;;;;;;;0.15;0.15;;;;;;;15.89;32.15;101714.31;5012886;28;20881;-81
2023/10/16 11:16:54;;;;;;;0.10;0.10;;;;;;;16.20;31.70;101701.59;5012572;28;20439;-79
2023/10/16 11:19:35;;;;;;;0.10;0.10;;;;;;;15.96;31.59;101685.81;4961287;28;20482;-77
2023/10/16 11:22:00;;;;;;;0.20;0.20;;;;;;;16.03;31.39;101678.72;5007296;28;20720;-79
2023/10/16 11:24:26;;;;;;;0.10;0.10;;;;;;;16.04;30.77;101688.41;4976124;28;20392;-78
2023/10/16 11:26:54;;;;;;;0.10;0.10;;;;;;;16.23;30.77;101690.56;4972764;28;20381;-78
2023/10/16 11:29:23;;;;;;;0.20;0.20;;;;;;;16.68;30.53;101708.47;4990862;28;20441;-79
2023/10/16 11:31:52;;;;;;;0.15;0.15;;;;;;;16.65;30.56;101698.94;4971730;28;20389;-78
2023/10/16 11:34:25;;;;;;;1.30;0.30;;;;;;;16.32;29.25;101698.50;4989988;28;20839;-77
2023/10/16 11:36:55;;;;;;;0.20;0.20;;;;;;;15.98;29.97;101668.56;4973021;28;20398;-79
2023/10/16 11:39:22;;;;;;;0.10;0.10;;;;;;;16.17;30.14;101659.19;4991564;28;20406;-79
2023/10/16 11:41:54;;;;;;;0.10;0.10;;;;;;;16.36;30.02;101675.72;4991651;28;20768;-80
2023/10/16 11:44:26;;;;;;;0.20;0.20;;;;;;;16.23;29.55;101684.38;4974117;28;21054;-79
2023/10/16 11:47:01;;;;;;;0.10;0.10;;;;;;;16.32;29.09;101685.13;4990707;28;20801;-80
2023/10/16 11:49:35;;;;;;;0.10;0.10;;;;;;;16.62;28.92;101672.56;4974110;28;20409;-78
2023/10/16 11:52:27;;;;;;;0.13;0.13;;;;;;;16.75;29.09;101672.72;4991441;28;20397;-80
2023/10/16 11:54:57;;;;;;;0.10;0.10;;;;;;;16.43;29.25;101661.38;4989252;28;20405;-81
2023/10/16 11:57:24;;;;;;;0.10;0.10;;;;;;;16.49;28.84;101659.00;4990357;28;20394;-79
2023/10/16 11:59:51;;;;;;;0.25;0.25;;;;;;;16.74;28.29;101662.19;4991444;28;20411;-81
2023/10/16 12:02:23;;;;;;;0.10;0.10;;;;;;;16.58;28.20;101663.22;4991435;28;20382;-78
2023/10/16 12:04:49;;;;;;;0.20;0.20;;;;;;;16.95;28.52;101670.31;4973851;28;20922;-77
2023/10/16 12:07:16;;;;;;;0.20;0.20;;;;;;;16.47;29.30;101656.50;4991150;28;20398;-79
2023/10/16 12:09:52;;;;;;;0.10;0.10;;;;;;;16.75;28.95;101659.34;4989782;28;20436;-78
2023/10/16 12:12:24;;;;;;;0.40;0.40;;;;;;;16.60;28.75;101643.31;4990201;28;20393;-78
2023/10/16 12:14:53;;;;;;;0.10;0.10;;;;;;;16.86;29.04;101651.88;4973358;28;20398;-77
2023/10/16 12:17:28;;;;;;;0.17;0.17;;;;;;;17.15;28.90;101662.47;4990768;28;20453;-78
2023/10/16 12:19:53;;;;;;;0.10;0.10;;;;;;;16.94;28.52;101663.31;4974476;28;20492;-77
2023/10/16 12:22:23;;;;;;;0.60;0.60;;;;;;;17.08;28.63;101655.41;4991403;28;20532;-78
2023/10/16 12:24:49;;;;;;;0.20;0.20;;;;;;;16.88;28.92;101641.78;4991070;28;20469;-79
2023/10/16 12:27:15;;;;;;;0.20;0.20;;;;;;;17.06;28.87;101638.69;4973250;28;20520;-78
2023/10/16 12:29:41;;;;;;;0.15;0.15;;;;;;;17.32;28.38;101641.63;4990583;28;20459;-79
2023/10/16 12:32:07;;;;;;;0.43;0.22;;;;;;;17.26;28.31;101644.25;4990747;28;20394;-79
2023/10/16 12:34:35;;;;;;;0.10;0.10;;;;;;;17.47;28.46;101641.56;4973356;28;20386;-79
2023/10/16 12:37:06;;;;;;;0.13;0.13;;;;;;;17.50;28.61;101632.28;4990770;28;20544;-80
2023/10/16 12:39:32;;;;;;;0.30;0.30;;;;;;;17.09;29.07;101635.63;4991044;28;20381;-78
2023/10/16 12:41:57;;;;;;;0.20;0.20;;;;;;;17.02;29.03;101638.25;4973032;28;20757;-78
2023/10/16 12:44:23;;;;;;;0.10;0.10;;;;;;;17.10;29.10;101630.06;4991122;28;20424;-78
2023/10/16 12:46:53;;;;;;;0.10;0.10;;;;;;;17.34;29.09;101628.88;4990334;28;20520;-78
2023/10/16 12:49:22;;;;;;;0.10;0.10;;;;;;;17.31;29.08;101628.44;4973127;28;20785;-75
2023/10/16 12:51:53;;;;;;;0.80;0.60;;;;;;;17.34;29.08;101623.50;4991086;28;20393;-78
2023/10/16 12:54:24;;;;;;;0.40;0.40;;;;;;;17.51;28.71;101624.06;4990929;28;20791;-78
2023/10/16 12:56:52;;;;;;;0.10;0.10;;;;;;;17.33;28.90;101604.94;4973828;28;20493;-78
2023/10/16 12:59:20;;;;;;;0.20;0.20;;;;;;;17.39;28.88;101612.19;4982506;28;20385;-80
2023/10/16 13:01:49;;;;;;;0.10;0.10;;;;;;;17.36;29.11;101607.25;4973442;28;20967;-79
2023/10/16 13:04:17;;;;;;;0.10;0.10;;;;;;;17.52;29.02;101614.16;4991535;28;20389;-78
2023/10/16 13:06:43;;;;;;;0.10;0.10;;;;;;;17.36;28.46;101626.81;4994489;28;20402;-79
2023/10/16 13:09:19;;;;;;;0.10;0.10;;;;;;;17.12;28.13;101637.91;4994141;28;20417;-80
2023/10/16 13:11:46;;;;;;;0.20;0.20;;;;;;;17.08;27.87;101631.28;4976938;28;20400;-77
2023/10/16 13:14:18;;;;;;;0.20;0.20;;;;;;;17.15;28.18;101619.63;4994675;28;20377;-79
2023/10/16 13:16:53;;;;;;;0.10;0.10;;;;;;;17.08;28.13;101618.72;4994477;28;20421;-78
2023/10/16 13:19:27;;;;;;;0.10;0.10;;;;;;;17.03;29.05;101615.78;4994272;28;20401;-76
2023/10/16 13:21:53;;;;;;;0.10;0.10;;;;;;;17.49;28.72;101622.59;4994036;28;20394;-77
2023/10/16 13:24:20;;;;;;;0.20;0.20;;;;;;;17.19;29.08;101628.09;4994539;28;20382;-80
2023/10/16 13:26:52;;;;;;;0.10;0.10;;;;;;;17.24;28.83;101632.91;4976626;28;20955;-79
2023/10/16 13:29:21;;;;;;;0.17;0.17;;;;;;;17.18;28.46;101629.97;4971811;28;20411;-78
2023/10/16 13:31:46;;;;;;;0.40;0.40;;;;;;;17.30;28.49;101613.34;4956253;28;20534;-78
2023/10/16 13:34:15;;;;;;;0.20;0.20;;;;;;;17.34;27.97;101623.50;4971878;28;20478;-78
2023/10/16 13:37:00;;;;;;;0.13;0.13;;;;;;;17.34;27.98;101622.66;4971707;28;20395;-78
2023/10/16 13:39:26;;;;;;;0.20;0.20;;;;;;;16.91;28.64;101631.53;4971874;28;20398;-78
2023/10/16 13:41:53;;;;;;;0.50;0.30;;;;;;;16.79;28.87;101633.84;4971747;28;20392;-78
2023/10/16 13:44:19;;;;;;;0.30;0.30;;;;;;;16.81;28.52;101621.09;4972029;28;20771;-76
2023/10/16 13:46:52;;;;;;;0.20;0.20;;;;;;;17.22;28.40;101624.22;4971697;28;20399;-78
2023/10/16 13:49:18;;;;;;;0.28;0.28;;;;;;;17.32;28.22;101611.31;4970892;28;20415;-78
2023/10/16 13:51:45;;;;;;;0.20;0.20;;;;;;;17.39;28.27;101601.47;4971382;28;20572;-78